Leonie — PHLE — position and weather

sailwx.info

Track history (hours):
 
Tides and Currents Weather Stations Pressure Air Temp Water Temp Dewpoint Dewpoint Depression Visibility Wind Speed Wind Dir Waves Ship Positions

Leonie

Last reported at 2016-Aug-26 17:06 UTC. Time now 2016-Aug-28 06:54 UTC.
Position N 40°23' W 009°02'.

Length 90 m; draft 5.5 m.

Type: Cargo ship. MMSI: 244772000.

Date/timePositionNaut miles runAvg speedWind from/ knotsBaromVisibWave heightAir tempDewpointWater temp
2016-Aug-26 17:06N 40°23' W 009°02'5 9.1
2016-Aug-26 16:33N 40°18' W 009°01'10 0.3
2016-Aug-25 02:32N 40°09' W 008°56'0 0.0
2016-Aug-25 01:20N 40°09' W 008°56'0 0.0
2016-Aug-25 00:32N 40°09' W 008°56'18 4.3
2016-Aug-24 20:19N 40°26' W 009°04'8 9.9
2016-Aug-24 19:33N 40°34' W 009°06'1010.0
2016-Aug-24 18:33N 40°43' W 009°10'1110.1
2016-Aug-24 17:31N 40°53' W 009°15'1010.3
2016-Aug-24 16:33N 41°03' W 009°18'1010.1
2016-Aug-24 15:33N 41°12' W 009°22'1010.3
2016-Aug-24 14:32N 41°22' W 009°26'2210.7
2016-Aug-24 12:26N 41°44' W 009°35'1010.2
2016-Aug-24 11:25N 41°54' W 009°39'910.1
2016-Aug-24 10:33N 42°02' W 009°43'1010.1
2016-Aug-24 09:32N 42°12' W 009°47'174 9.5
2016-Aug-23 15:15N 45°00' W 008°47'710.1
2016-Aug-23 14:33N 45°06' W 008°43'3010.0
2016-Aug-23 11:33N 45°33' W 008°23'12510.4
2016-Aug-22 23:33N 47°23' W 006°57'1111.2
2016-Aug-22 22:33N 47°33' W 006°50'1212.1
2016-Aug-22 21:33N 47°43' W 006°40'1111.2
2016-Aug-22 20:33N 47°53' W 006°33'2410.3
2016-Aug-22 18:13N 48°15' W 006°17'7 9.0
2016-Aug-22 17:29N 48°21' W 006°12'9 9.1
2016-Aug-22 16:33N 48°28' W 006°06'9 9.5
2016-Aug-22 15:33N 48°36' W 005°59'1010.3
2016-Aug-22 14:33N 48°45' W 005°52'1111.2
2016-Aug-22 13:33N 48°54' W 005°42'1211.9
2016-Aug-22 12:33N 49°00' W 005°26'1212.0
2016-Aug-22 11:33N 49°07' W 005°10'1111.2
2016-Aug-22 10:33N 49°12' W 004°55'1010.3
2016-Aug-22 09:33N 49°17' W 004°42'10 9.1
2016-Aug-22 08:30N 49°22' W 004°29'8 8.4
2016-Aug-22 07:32N 49°26' W 004°19'8 8.5
2016-Aug-22 06:33N 49°31' W 004°07'10 9.3
2016-Aug-22 05:30N 49°35' W 003°54'1010.5
2016-Aug-22 04:31N 49°40' W 003°40'1111.6
2016-Aug-22 03:33N 49°46' W 003°25'1312.3
2016-Aug-22 02:28N 49°53' W 003°08'1111.7
2016-Aug-22 01:33N 49°58' W 002°53'1110.5
2016-Aug-22 00:31N 50°02' W 002°37'11 8.6
2016-Aug-21 23:13N 50°06' W 002°21'5 6.9
2016-Aug-21 22:32N 50°07' W 002°14'6 6.3
2016-Aug-21 21:33N 50°10' W 002°05'7210.3
2016-Aug-21 14:33N 50°30' W 000°17'1010.2
2016-Aug-21 13:33N 50°32' W 000°01'9 8.6
2016-Aug-21 12:33N 50°35' E 000°12'8 7.4
2016-Aug-21 11:25N 50°37' E 000°25'34 8.8
2016-Aug-21 07:33N 50°56' E 001°10'1111.5
2016-Aug-21 06:33N 51°03' E 001°24'10 9.5
2016-Aug-21 05:33N 51°09' E 001°36'8 7.8
2016-Aug-21 04:33N 51°14' E 001°45'7 7.1
2016-Aug-21 03:33N 51°21' E 001°49'6 6.3
2016-Aug-21 02:34N 51°26' E 001°54'6 5.6
2016-Aug-21 01:33N 51°30' E 002°00'6 5.5
2016-Aug-21 00:33N 51°34' E 002°06'7 7.1
2016-Aug-20 23:33N 51°40' E 002°14'150 7.5
2016-Aug-20 03:32N 53°32' E 004°58'1111.2
2016-Aug-20 02:33N 53°36' E 005°15'1111.4
2016-Aug-20 01:33N 53°40' E 005°33'1111.2
2016-Aug-20 00:33N 53°43' E 005°51'1110.8
2016-Aug-19 23:34N 53°46' E 006°09'1010.1
2016-Aug-19 22:33N 53°49' E 006°25'10 9.7
2016-Aug-19 21:33N 53°52' E 006°41'10 9.7
2016-Aug-19 20:33N 53°54' E 006°57'10 9.9
2016-Aug-19 19:33N 53°57' E 007°13'1110.9
2016-Aug-19 18:33N 53°60' E 007°31'1211.8
2016-Aug-19 17:33N 54°01' E 007°51'1312.7
2016-Aug-19 16:34N 54°01' E 008°12'1313.5
2016-Aug-19 15:33N 53°58' E 008°35'1211.8
2016-Aug-19 14:33N 53°50' E 008°50'9 9.5
2016-Aug-19 13:33N 53°53' E 009°06'3 3.1
2016-Aug-19 12:34N 53°54' E 009°10'0 0.5
2016-Aug-19 11:33N 53°55' E 009°11'0 0.0
2016-Aug-19 10:33N 53°55' E 009°11'1 1.0
2016-Aug-19 09:33N 53°55' E 009°12'8 8.3
2016-Aug-19 08:33N 54°03' E 009°18'8 7.7
2016-Aug-19 07:33N 54°10' E 009°24'8 8.2
2016-Aug-19 06:34N 54°14' E 009°36'13 6.7
2016-Aug-19 04:33N 54°20' E 009°56'7 7.2
2016-Aug-19 03:33N 54°22' E 010°09'3 2.7
2016-Aug-19 02:33N 54°24' E 010°12'9 9.1
2016-Aug-19 01:33N 54°31' E 010°21'10 9.6
2016-Aug-19 00:33N 54°35' E 010°37'10 9.6
2016-Aug-18 23:33N 54°36' E 010°53'1010.0
2016-Aug-18 22:34N 54°36' E 011°10'1110.7
2016-Aug-18 21:33N 54°32' E 011°27'1010.2
2016-Aug-18 20:33N 54°29' E 011°44'10 9.9
2016-Aug-18 19:33N 54°27' E 012°01'9 8.6
2016-Aug-18 18:33N 54°32' E 012°12'10 9.8
2016-Aug-18 17:33N 54°40' E 012°23'44 9.9
2016-Aug-18 13:04N 54°58' E 013°33'5 9.7
2016-Aug-18 12:33N 55°00' E 013°41'9 9.5
2016-Aug-18 11:33N 55°03' E 013°56'10 9.6
2016-Aug-18 10:33N 55°09' E 014°10'1110.6
2016-Aug-18 09:33N 55°17' E 014°22'1110.9
2016-Aug-18 08:33N 55°25' E 014°35'1010.1
2016-Aug-18 07:33N 55°30' E 014°50'10 9.7
2016-Aug-18 06:33N 55°35' E 015°05'10 9.7
2016-Aug-18 05:33N 55°40' E 015°20'103 6.9
2016-Aug-17 14:34N 57°13' E 016°40'8 8.1
2016-Aug-17 13:33N 57°06' E 016°34'0 0.0
2016-Aug-17 12:31N 57°06' E 016°34'0 0.0
2016-Aug-17 11:31N 57°06' E 016°34'0 0.0
2016-Aug-17 10:31N 57°06' E 016°34'0 0.0
2016-Aug-17 09:31N 57°06' E 016°34'0 0.0
2016-Aug-17 08:31N 57°06' E 016°34'0 0.0
2016-Aug-17 07:31N 57°06' E 016°34'0 0.0
2016-Aug-17 06:19N 57°06' E 016°34'0 0.0
2016-Aug-17 05:31N 57°06' E 016°34'0 0.0
2016-Aug-17 04:25N 57°06' E 016°34'0 0.0
2016-Aug-17 03:31N 57°06' E 016°34'0 0.0
2016-Aug-17 02:31N 57°06' E 016°34'0 0.0
2016-Aug-17 01:28N 57°06' E 016°34'0 0.0
2016-Aug-17 00:31N 57°06' E 016°34'0 0.0
2016-Aug-16 23:31N 57°06' E 016°34'0 0.0
2016-Aug-16 22:31N 57°06' E 016°34'0 0.0
2016-Aug-16 21:31N 57°06' E 016°34'0 0.0
2016-Aug-16 20:31N 57°06' E 016°34'0 0.0
2016-Aug-16 19:31N 57°06' E 016°34'0 0.0
2016-Aug-16 18:31N 57°06' E 016°34'0 0.0
2016-Aug-16 17:31N 57°06' E 016°34'  
Track history (hours):
 
Tides and Currents Weather Stations Pressure Air Temp Water Temp Dewpoint Dewpoint Depression Visibility Wind Speed Wind Dir Waves Ship Positions

Leonie

Last reported at 2016-Aug-26 17:06 UTC. Time now 2016-Aug-28 06:54 UTC.
Position N 40°23' W 009°02'.

Length 90 m; draft 5.5 m.

Type: Cargo ship. MMSI: 244772000.

Date/timePositionNaut miles runAvg speedWind from/ knotsBaromVisibWave heightAir tempDewpointWater temp
2016-Aug-26 17:06N 40°23' W 009°02'5 9.1
2016-Aug-26 16:33N 40°18' W 009°01'10 0.3
2016-Aug-25 02:32N 40°09' W 008°56'0 0.0
2016-Aug-25 01:20N 40°09' W 008°56'0 0.0
2016-Aug-25 00:32N 40°09' W 008°56'18 4.3
2016-Aug-24 20:19N 40°26' W 009°04'8 9.9
2016-Aug-24 19:33N 40°34' W 009°06'1010.0
2016-Aug-24 18:33N 40°43' W 009°10'1110.1
2016-Aug-24 17:31N 40°53' W 009°15'1010.3
2016-Aug-24 16:33N 41°03' W 009°18'1010.1
2016-Aug-24 15:33N 41°12' W 009°22'1010.3
2016-Aug-24 14:32N 41°22' W 009°26'2210.7
2016-Aug-24 12:26N 41°44' W 009°35'1010.2
2016-Aug-24 11:25N 41°54' W 009°39'910.1
2016-Aug-24 10:33N 42°02' W 009°43'1010.1
2016-Aug-24 09:32N 42°12' W 009°47'174 9.5
2016-Aug-23 15:15N 45°00' W 008°47'710.1
2016-Aug-23 14:33N 45°06' W 008°43'3010.0
2016-Aug-23 11:33N 45°33' W 008°23'12510.4
2016-Aug-22 23:33N 47°23' W 006°57'1111.2
2016-Aug-22 22:33N 47°33' W 006°50'1212.1
2016-Aug-22 21:33N 47°43' W 006°40'1111.2
2016-Aug-22 20:33N 47°53' W 006°33'2410.3
2016-Aug-22 18:13N 48°15' W 006°17'7 9.0
2016-Aug-22 17:29N 48°21' W 006°12'9 9.1
2016-Aug-22 16:33N 48°28' W 006°06'9 9.5
2016-Aug-22 15:33N 48°36' W 005°59'1010.3
2016-Aug-22 14:33N 48°45' W 005°52'1111.2
2016-Aug-22 13:33N 48°54' W 005°42'1211.9
2016-Aug-22 12:33N 49°00' W 005°26'1212.0
2016-Aug-22 11:33N 49°07' W 005°10'1111.2
2016-Aug-22 10:33N 49°12' W 004°55'1010.3
2016-Aug-22 09:33N 49°17' W 004°42'10 9.1
2016-Aug-22 08:30N 49°22' W 004°29'8 8.4
2016-Aug-22 07:32N 49°26' W 004°19'8 8.5
2016-Aug-22 06:33N 49°31' W 004°07'10 9.3
2016-Aug-22 05:30N 49°35' W 003°54'1010.5
2016-Aug-22 04:31N 49°40' W 003°40'1111.6
2016-Aug-22 03:33N 49°46' W 003°25'1312.3
2016-Aug-22 02:28N 49°53' W 003°08'1111.7
2016-Aug-22 01:33N 49°58' W 002°53'1110.5
2016-Aug-22 00:31N 50°02' W 002°37'11 8.6
2016-Aug-21 23:13N 50°06' W 002°21'5 6.9
2016-Aug-21 22:32N 50°07' W 002°14'6 6.3
2016-Aug-21 21:33N 50°10' W 002°05'7210.3
2016-Aug-21 14:33N 50°30' W 000°17'1010.2
2016-Aug-21 13:33N 50°32' W 000°01'9 8.6
2016-Aug-21 12:33N 50°35' E 000°12'8 7.4
2016-Aug-21 11:25N 50°37' E 000°25'34 8.8
2016-Aug-21 07:33N 50°56' E 001°10'1111.5
2016-Aug-21 06:33N 51°03' E 001°24'10 9.5
2016-Aug-21 05:33N 51°09' E 001°36'8 7.8
2016-Aug-21 04:33N 51°14' E 001°45'7 7.1
2016-Aug-21 03:33N 51°21' E 001°49'6 6.3
2016-Aug-21 02:34N 51°26' E 001°54'6 5.6
2016-Aug-21 01:33N 51°30' E 002°00'6 5.5
2016-Aug-21 00:33N 51°34' E 002°06'7 7.1
2016-Aug-20 23:33N 51°40' E 002°14'150 7.5
2016-Aug-20 03:32N 53°32' E 004°58'1111.2
2016-Aug-20 02:33N 53°36' E 005°15'1111.4
2016-Aug-20 01:33N 53°40' E 005°33'1111.2
2016-Aug-20 00:33N 53°43' E 005°51'1110.8
2016-Aug-19 23:34N 53°46' E 006°09'1010.1
2016-Aug-19 22:33N 53°49' E 006°25'10 9.7
2016-Aug-19 21:33N 53°52' E 006°41'10 9.7
2016-Aug-19 20:33N 53°54' E 006°57'10 9.9
2016-Aug-19 19:33N 53°57' E 007°13'1110.9
2016-Aug-19 18:33N 53°60' E 007°31'1211.8
2016-Aug-19 17:33N 54°01' E 007°51'1312.7
2016-Aug-19 16:34N 54°01' E 008°12'1313.5
2016-Aug-19 15:33N 53°58' E 008°35'1211.8
2016-Aug-19 14:33N 53°50' E 008°50'9 9.5
2016-Aug-19 13:33N 53°53' E 009°06'3 3.1
2016-Aug-19 12:34N 53°54' E 009°10'0 0.5
2016-Aug-19 11:33N 53°55' E 009°11'0 0.0
2016-Aug-19 10:33N 53°55' E 009°11'1 1.0
2016-Aug-19 09:33N 53°55' E 009°12'8 8.3
2016-Aug-19 08:33N 54°03' E 009°18'8 7.7
2016-Aug-19 07:33N 54°10' E 009°24'8 8.2
2016-Aug-19 06:34N 54°14' E 009°36'13 6.7
2016-Aug-19 04:33N 54°20' E 009°56'7 7.2
2016-Aug-19 03:33N 54°22' E 010°09'3 2.7
2016-Aug-19 02:33N 54°24' E 010°12'9 9.1
2016-Aug-19 01:33N 54°31' E 010°21'10 9.6
2016-Aug-19 00:33N 54°35' E 010°37'10 9.6
2016-Aug-18 23:33N 54°36' E 010°53'1010.0
2016-Aug-18 22:34N 54°36' E 011°10'1110.7
2016-Aug-18 21:33N 54°32' E 011°27'1010.2
2016-Aug-18 20:33N 54°29' E 011°44'10 9.9
2016-Aug-18 19:33N 54°27' E 012°01'9 8.6
2016-Aug-18 18:33N 54°32' E 012°12'10 9.8
2016-Aug-18 17:33N 54°40' E 012°23'44 9.9
2016-Aug-18 13:04N 54°58' E 013°33'5 9.7
2016-Aug-18 12:33N 55°00' E 013°41'9 9.5
2016-Aug-18 11:33N 55°03' E 013°56'10 9.6
2016-Aug-18 10:33N 55°09' E 014°10'1110.6
2016-Aug-18 09:33N 55°17' E 014°22'1110.9
2016-Aug-18 08:33N 55°25' E 014°35'1010.1
2016-Aug-18 07:33N 55°30' E 014°50'10 9.7
2016-Aug-18 06:33N 55°35' E 015°05'10 9.7
2016-Aug-18 05:33N 55°40' E 015°20'103 6.9
2016-Aug-17 14:34N 57°13' E 016°40'8 8.1
2016-Aug-17 13:33N 57°06' E 016°34'0 0.0
2016-Aug-17 12:31N 57°06' E 016°34'0 0.0
2016-Aug-17 11:31N 57°06' E 016°34'0 0.0
2016-Aug-17 10:31N 57°06' E 016°34'0 0.0
2016-Aug-17 09:31N 57°06' E 016°34'0 0.0
2016-Aug-17 08:31N 57°06' E 016°34'0 0.0
2016-Aug-17 07:31N 57°06' E 016°34'0 0.0
2016-Aug-17 06:19N 57°06' E 016°34'0 0.0
2016-Aug-17 05:31N 57°06' E 016°34'0 0.0
2016-Aug-17 04:25N 57°06' E 016°34'0 0.0
2016-Aug-17 03:31N 57°06' E 016°34'0 0.0
2016-Aug-17 02:31N 57°06' E 016°34'0 0.0
2016-Aug-17 01:28N 57°06' E 016°34'0 0.0
2016-Aug-17 00:31N 57°06' E 016°34'0 0.0
2016-Aug-16 23:31N 57°06' E 016°34'0 0.0
2016-Aug-16 22:31N 57°06' E 016°34'0 0.0
2016-Aug-16 21:31N 57°06' E 016°34'0 0.0
2016-Aug-16 20:31N 57°06' E 016°34'0 0.0
2016-Aug-16 19:31N 57°06' E 016°34'0 0.0
2016-Aug-16 18:31N 57°06' E 016°34'0 0.0
2016-Aug-16 17:31N 57°06' E 016°34'  

Dump ship's entire track history